createdAt,value
2023-07-18T00:05:37.902Z,100425.22
2023-07-18T00:11:42.227Z,100418.03
2023-07-18T00:17:45.415Z,100415.25
2023-07-18T00:23:49.027Z,100439.41
2023-07-18T00:29:52.037Z,100425.84
2023-07-18T00:35:54.248Z,100414.41
2023-07-18T00:41:56.515Z,100421.78
2023-07-18T00:47:59.224Z,100416.44
2023-07-18T00:54:03.982Z,100410.25
2023-07-18T01:00:12.610Z,100419.66
2023-07-18T01:06:15.351Z,100440.22
2023-07-18T01:12:17.659Z,100448.47
2023-07-18T01:18:21.238Z,100439.59
2023-07-18T01:24:23.907Z,100444.84
2023-07-18T01:30:28.598Z,100436.94
2023-07-18T01:36:31.156Z,100434.28
2023-07-18T01:42:34.123Z,100411.56
2023-07-18T01:48:38.096Z,100419.31
2023-07-18T01:54:43.024Z,100410.25
2023-07-18T02:00:45.252Z,100411.53
2023-07-18T02:06:47.503Z,100410.28
2023-07-18T02:12:50.872Z,100401.44
2023-07-18T02:18:55.074Z,100407.63
2023-07-18T02:24:58.704Z,100410.44
2023-07-18T02:31:01.358Z,100402.13
2023-07-18T02:37:04.780Z,100409.53
2023-07-18T02:43:07.698Z,100409.22
2023-07-18T02:49:10.473Z,100397.25
2023-07-18T02:55:13.849Z,100393.03
2023-07-18T03:01:20.525Z,100392.13
2023-07-18T03:07:23.224Z,100385.94
2023-07-18T03:13:29.431Z,100375.53
2023-07-18T03:19:33.148Z,100372.03
2023-07-18T03:25:38.448Z,100374.53
2023-07-18T03:31:41.256Z,100368.44
2023-07-18T03:37:44.149Z,100369.72
2023-07-18T03:43:46.345Z,100384.25
2023-07-18T03:49:48.769Z,100382.56
2023-07-18T03:55:51.746Z,100380.38
2023-07-18T04:02:10.727Z,100394.09
2023-07-18T04:08:13.155Z,100393.56
2023-07-18T07:19:11.567Z,100399.94
2023-07-18T07:25:16.863Z,100409.72
2023-07-18T07:31:19.529Z,100415.59
2023-07-18T07:37:22.385Z,100419.72
2023-07-18T07:43:25.903Z,100420.28
2023-07-18T07:49:29.228Z,100416.78
2023-07-18T07:55:31.652Z,100425.50
2023-07-18T08:01:34.388Z,100426.44
2023-07-18T08:07:41.524Z,100437.72
2023-07-18T08:13:44.328Z,100427.97
2023-07-18T08:19:46.721Z,100432.59
2023-07-18T08:25:49.072Z,100429.50
2023-07-18T08:31:56.528Z,100429.34
2023-07-18T08:37:58.861Z,100413.91
2023-07-18T08:44:04.027Z,100406.63
2023-07-18T08:50:11.138Z,100403.38
2023-07-18T08:56:14.885Z,100404.41
2023-07-18T09:02:17.265Z,100407.34
2023-07-18T09:08:20.117Z,100410.03
2023-07-18T09:14:29.021Z,100416.06
2023-07-18T09:20:33.868Z,100412.53
2023-07-18T09:26:36.273Z,100422.47
2023-07-18T09:32:40.763Z,100408.88
2023-07-18T09:38:45.307Z,100407.81
2023-07-18T09:44:53.428Z,100402.97
2023-07-18T09:51:01.396Z,100403.28
2023-07-18T09:57:07.104Z,100391.63
2023-07-18T10:03:11.722Z,100387.84
2023-07-18T10:09:14.746Z,100389.03
2023-07-18T10:15:18.308Z,100377.72
2023-07-18T10:21:34.616Z,100367.72
2023-07-18T10:27:44.980Z,100360.75
2023-07-18T10:34:16.520Z,100362.06
2023-07-18T10:40:53.961Z,100365.97
2023-07-18T10:46:56.395Z,100366.56
2023-07-18T10:52:59.042Z,100362.41
2023-07-18T10:59:01.349Z,100362.88
2023-07-18T11:05:08.348Z,100361.66
2023-07-18T11:11:12.509Z,100361.91
2023-07-18T11:17:18.924Z,100352.31
2023-07-18T11:23:23.155Z,100367.69
2023-07-18T11:29:28.737Z,100339.06
2023-07-18T11:35:52.504Z,100338.56
2023-07-18T11:42:07.781Z,100338.16
2023-07-18T11:48:10.170Z,100338.94
2023-07-18T11:54:13.671Z,100349.97
2023-07-18T12:00:17.661Z,100340.09
2023-07-18T12:06:20.778Z,100340.38
2023-07-18T12:12:25.125Z,100329.25
2023-07-18T12:18:28.591Z,100320.03
2023-07-18T12:24:33.082Z,100309.88
2023-07-18T12:30:35.964Z,100324.13
2023-07-18T12:36:38.858Z,100324.59
2023-07-18T12:42:41.150Z,100307.75
2023-07-18T12:54:48.478Z,100331.25
2023-07-18T13:00:50.761Z,100311.72
2023-07-18T13:06:53.249Z,100327.88
2023-07-18T13:12:55.619Z,100306.97
2023-07-18T13:18:58.028Z,100306.13
2023-07-18T13:25:00.218Z,100308.72
2023-07-18T13:31:02.536Z,100292.59
2023-07-18T13:37:05.336Z,100298.31
2023-07-18T13:43:07.588Z,100313.56
2023-07-18T13:49:09.837Z,100302.94
2023-07-18T13:55:11.974Z,100307.13
2023-07-18T14:01:14.256Z,100291.25
2023-07-18T14:14:37.477Z,100272.50
2023-07-18T14:20:39.846Z,100285.06
2023-07-18T14:26:42.927Z,100280.41
2023-07-18T14:32:45.195Z,100280.13
2023-07-18T14:38:47.693Z,100283.38
2023-07-18T14:44:49.818Z,100279.25
2023-07-18T14:50:53.110Z,100291.97
2023-07-18T14:56:56.263Z,100298.97
2023-07-18T15:03:00.453Z,100287.50
2023-07-18T15:09:03.864Z,100289.19
2023-07-18T15:15:07.941Z,100303.97
2023-07-18T15:21:14.204Z,100294.38
2023-07-18T15:27:17.165Z,100303.09
2023-07-18T15:33:25.708Z,100310.84
2023-07-18T15:39:29.681Z,100326.09
2023-07-18T15:45:31.815Z,100335.09
2023-07-18T15:51:34.061Z,100330.66
2023-07-18T15:57:36.329Z,100328.94
2023-07-18T16:03:38.752Z,100333.31
2023-07-18T16:09:52.178Z,100329.72
2023-07-18T16:15:55.575Z,100345.44
2023-07-18T16:21:58.115Z,100350.41
2023-07-18T16:28:00.361Z,100368.69
2023-07-18T16:34:03.102Z,100348.66
2023-07-18T16:40:06.757Z,100350.88
2023-07-18T16:46:08.883Z,100357.31
2023-07-18T16:52:12.089Z,100364.69
2023-07-18T16:58:15.830Z,100375.38
2023-07-18T17:04:19.638Z,100371.91
2023-07-18T17:10:21.951Z,100382.22
2023-07-18T17:16:24.385Z,100384.13
2023-07-18T17:22:27.113Z,100388.03
2023-07-18T17:28:30.617Z,100380.97
2023-07-18T17:34:36.663Z,100375.91
2023-07-18T17:40:38.827Z,100386.19
2023-07-18T17:46:41.046Z,100392.47
2023-07-18T17:52:44.747Z,100396.84
2023-07-18T17:58:48.662Z,100398.22
2023-07-18T18:04:52.536Z,100400.28
2023-07-18T18:10:54.901Z,100403.81
2023-07-18T18:16:59.535Z,100413.44
2023-07-18T18:23:01.914Z,100423.66
2023-07-18T18:29:06.515Z,100429.22
2023-07-18T18:35:10.194Z,100440.19
2023-07-18T18:41:12.461Z,100435.34
2023-07-18T18:47:15.194Z,100438.75
2023-07-18T18:53:18.209Z,100432.38
2023-07-18T18:59:21.488Z,100431.91
2023-07-18T19:05:24.362Z,100427.44
2023-07-18T19:11:26.795Z,100430.78
2023-07-18T19:17:29.395Z,100423.91
2023-07-18T19:23:31.756Z,100426.97
2023-07-18T19:29:35.699Z,100418.00
2023-07-18T19:35:38.032Z,100418.19
2023-07-18T19:41:40.362Z,100414.97
2023-07-18T19:47:42.648Z,100414.13
2023-07-18T19:53:44.830Z,100426.13
2023-07-18T19:59:48.804Z,100430.19
2023-07-18T20:05:52.559Z,100433.81
2023-07-18T20:12:03.879Z,100432.34
2023-07-18T20:18:06.110Z,100443.94
2023-07-18T20:24:08.799Z,100462.19
2023-07-18T20:30:11.532Z,100460.69
2023-07-18T20:36:15.446Z,100468.81
2023-07-18T20:42:17.934Z,100482.50
2023-07-18T20:48:20.195Z,100482.66
2023-07-18T20:54:22.601Z,100483.56
2023-07-18T21:00:25.893Z,100497.53
2023-07-18T21:06:28.222Z,100508.38
2023-07-18T21:12:30.482Z,100513.81
2023-07-18T21:18:32.926Z,100516.25
2023-07-18T21:24:35.185Z,100504.22
2023-07-18T21:30:37.394Z,100496.50
2023-07-18T21:36:40.906Z,100499.13
2023-07-18T21:42:43.914Z,100499.84
2023-07-18T21:48:46.280Z,100503.09
2023-07-18T21:54:48.576Z,100488.53
2023-07-18T22:00:50.826Z,100497.97
2023-07-18T22:06:53.131Z,100502.66
2023-07-18T22:12:59.452Z,100498.97
2023-07-18T22:19:01.762Z,100508.31
2023-07-18T22:25:05.867Z,100503.72
2023-07-18T22:31:08.289Z,100517.69
2023-07-18T22:37:11.693Z,100519.63
2023-07-18T22:43:15.006Z,100516.94
2023-07-18T22:49:18.350Z,100517.72
2023-07-18T22:55:20.775Z,100517.88
2023-07-18T23:01:24.357Z,100519.03
2023-07-18T23:07:28.606Z,100498.72
2023-07-18T23:13:31.178Z,100497.19
2023-07-18T23:19:35.279Z,100486.03
2023-07-18T23:25:37.584Z,100484.16
2023-07-18T23:31:40.356Z,100481.19
2023-07-18T23:37:43.354Z,100489.81
2023-07-18T23:43:49.119Z,100479.84
2023-07-18T23:49:51.569Z,100472.94
2023-07-18T23:55:55.049Z,100467.22
